sensor_id;sensor_type;location;lat;lon;timestamp;P1;P2;P0
46240;PMS5003;31961;52.416;-0.732;2022-12-29T00:00:36;3;2;
46240;PMS5003;31961;52.416;-0.732;2022-12-29T00:03:04;1;1;
46240;PMS5003;31961;52.416;-0.732;2022-12-29T00:05:32;4;3;
46240;PMS5003;31961;52.416;-0.732;2022-12-29T00:07:59;2;1;
46240;PMS5003;31961;52.416;-0.732;2022-12-29T00:10:27;5;2;
46240;PMS5003;31961;52.416;-0.732;2022-12-29T00:12:54;3;3;
46240;PMS5003;31961;52.416;-0.732;2022-12-29T00:15:22;2;2;
46240;PMS5003;31961;52.416;-0.732;2022-12-29T00:17:49;2;2;
46240;PMS5003;31961;52.416;-0.732;2022-12-29T00:20:17;2;2;
46240;PMS5003;31961;52.416;-0.732;2022-12-29T00:22:44;6;2;
46240;PMS5003;31961;52.416;-0.732;2022-12-29T00:25:12;5;2;
46240;PMS5003;31961;52.416;-0.732;2022-12-29T00:27:39;5;2;
46240;PMS5003;31961;52.416;-0.732;2022-12-29T00:30:08;2;2;
46240;PMS5003;31961;52.416;-0.732;2022-12-29T00:32:36;4;2;
46240;PMS5003;31961;52.416;-0.732;2022-12-29T00:35:04;2;2;
46240;PMS5003;31961;52.416;-0.732;2022-12-29T00:37:33;7;3;
46240;PMS5003;31961;52.416;-0.732;2022-12-29T00:40:00;3;3;
46240;PMS5003;31961;52.416;-0.732;2022-12-29T00:42:28;4;2;
46240;PMS5003;31961;52.416;-0.732;2022-12-29T00:44:56;3;3;
46240;PMS5003;31961;52.416;-0.732;2022-12-29T00:47:23;4;2;
46240;PMS5003;31961;52.416;-0.732;2022-12-29T00:49:51;5;3;
46240;PMS5003;31961;52.416;-0.732;2022-12-29T00:52:18;2;0;
46240;PMS5003;31961;52.416;-0.732;2022-12-29T00:54:46;6;3;
46240;PMS5003;31961;52.416;-0.732;2022-12-29T00:57:13;4;3;
46240;PMS5003;31961;52.416;-0.732;2022-12-29T00:59:41;7;3;
46240;PMS5003;31961;52.416;-0.732;2022-12-29T01:02:09;3;3;
46240;PMS5003;31961;52.416;-0.732;2022-12-29T01:04:36;3;3;
46240;PMS5003;31961;52.416;-0.732;2022-12-29T01:07:04;2;1;
46240;PMS5003;31961;52.416;-0.732;2022-12-29T01:09:31;4;2;
46240;PMS5003;31961;52.416;-0.732;2022-12-29T01:11:59;8;3;
46240;PMS5003;31961;52.416;-0.732;2022-12-29T01:14:26;10;5;
46240;PMS5003;31961;52.416;-0.732;2022-12-29T01:16:54;4;3;
46240;PMS5003;31961;52.416;-0.732;2022-12-29T01:19:22;4;3;
46240;PMS5003;31961;52.416;-0.732;2022-12-29T01:21:50;5;3;
46240;PMS5003;31961;52.416;-0.732;2022-12-29T01:24:17;4;2;
46240;PMS5003;31961;52.416;-0.732;2022-12-29T01:26:47;5;4;
46240;PMS5003;31961;52.416;-0.732;2022-12-29T01:29:14;5;5;
46240;PMS5003;31961;52.416;-0.732;2022-12-29T01:31:41;5;1;
46240;PMS5003;31961;52.416;-0.732;2022-12-29T01:34:09;7;6;
46240;PMS5003;31961;52.416;-0.732;2022-12-29T01:36:37;5;2;
46240;PMS5003;31961;52.416;-0.732;2022-12-29T01:39:04;9;4;
46240;PMS5003;31961;52.416;-0.732;2022-12-29T01:41:32;6;2;
46240;PMS5003;31961;52.416;-0.732;2022-12-29T01:43:59;10;7;
46240;PMS5003;31961;52.416;-0.732;2022-12-29T01:46:28;6;5;
46240;PMS5003;31961;52.416;-0.732;2022-12-29T01:49:00;5;2;
46240;PMS5003;31961;52.416;-0.732;2022-12-29T01:51:36;4;3;
46240;PMS5003;31961;52.416;-0.732;2022-12-29T01:54:08;4;2;
46240;PMS5003;31961;52.416;-0.732;2022-12-29T01:56:41;2;2;
46240;PMS5003;31961;52.416;-0.732;2022-12-29T01:59:10;3;1;
46240;PMS5003;31961;52.416;-0.732;2022-12-29T02:01:42;4;3;
46240;PMS5003;31961;52.416;-0.732;2022-12-29T02:04:09;3;2;
46240;PMS5003;31961;52.416;-0.732;2022-12-29T02:06:41;3;3;
46240;PMS5003;31961;52.416;-0.732;2022-12-29T02:09:14;3;2;
46240;PMS5003;31961;52.416;-0.732;2022-12-29T02:11:41;3;2;
46240;PMS5003;31961;52.416;-0.732;2022-12-29T02:14:09;6;4;
46240;PMS5003;31961;52.416;-0.732;2022-12-29T02:16:41;4;3;
46240;PMS5003;31961;52.416;-0.732;2022-12-29T02:19:34;3;2;
46240;PMS5003;31961;52.416;-0.732;2022-12-29T02:22:38;4;1;
46240;PMS5003;31961;52.416;-0.732;2022-12-29T02:25:25;5;2;
46240;PMS5003;31961;52.416;-0.732;2022-12-29T02:28:15;4;2;
46240;PMS5003;31961;52.416;-0.732;2022-12-29T02:31:12;5;3;
46240;PMS5003;31961;52.416;-0.732;2022-12-29T02:33:51;5;5;
46240;PMS5003;31961;52.416;-0.732;2022-12-29T02:36:27;3;3;
46240;PMS5003;31961;52.416;-0.732;2022-12-29T02:39:07;6;2;
46240;PMS5003;31961;52.416;-0.732;2022-12-29T02:41:47;3;3;
46240;PMS5003;31961;52.416;-0.732;2022-12-29T02:44:24;3;2;
46240;PMS5003;31961;52.416;-0.732;2022-12-29T02:47:04;5;4;
46240;PMS5003;31961;52.416;-0.732;2022-12-29T02:49:36;1;1;
46240;PMS5003;31961;52.416;-0.732;2022-12-29T02:52:10;6;4;
46240;PMS5003;31961;52.416;-0.732;2022-12-29T02:54:42;3;2;
46240;PMS5003;31961;52.416;-0.732;2022-12-29T02:57:11;2;2;
46240;PMS5003;31961;52.416;-0.732;2022-12-29T02:59:40;7;3;
46240;PMS5003;31961;52.416;-0.732;2022-12-29T03:02:14;3;2;
46240;PMS5003;31961;52.416;-0.732;2022-12-29T03:04:59;2;1;
46240;PMS5003;31961;52.416;-0.732;2022-12-29T03:07:40;4;3;
46240;PMS5003;31961;52.416;-0.732;2022-12-29T03:10:19;4;2;
46240;PMS5003;31961;52.416;-0.732;2022-12-29T03:12:59;5;3;
46240;PMS5003;31961;52.416;-0.732;2022-12-29T03:15:33;7;3;
46240;PMS5003;31961;52.416;-0.732;2022-12-29T03:18:06;4;4;
46240;PMS5003;31961;52.416;-0.732;2022-12-29T03:20:38;5;2;
46240;PMS5003;31961;52.416;-0.732;2022-12-29T03:23:09;4;3;
46240;PMS5003;31961;52.416;-0.732;2022-12-29T03:25:39;3;2;
46240;PMS5003;31961;52.416;-0.732;2022-12-29T03:28:11;6;3;
46240;PMS5003;31961;52.416;-0.732;2022-12-29T03:30:43;6;4;
46240;PMS5003;31961;52.416;-0.732;2022-12-29T03:33:13;5;4;
46240;PMS5003;31961;52.416;-0.732;2022-12-29T03:35:44;5;3;
46240;PMS5003;31961;52.416;-0.732;2022-12-29T03:38:16;3;2;
46240;PMS5003;31961;52.416;-0.732;2022-12-29T03:40:48;3;3;
46240;PMS5003;31961;52.416;-0.732;2022-12-29T03:43:18;7;3;
46240;PMS5003;31961;52.416;-0.732;2022-12-29T03:45:46;3;3;
46240;PMS5003;31961;52.416;-0.732;2022-12-29T03:48:13;5;2;
46240;PMS5003;31961;52.416;-0.732;2022-12-29T03:50:41;7;4;
46240;PMS5003;31961;52.416;-0.732;2022-12-29T03:53:08;5;3;
46240;PMS5003;31961;52.416;-0.732;2022-12-29T03:55:36;4;2;
46240;PMS5003;31961;52.416;-0.732;2022-12-29T03:58:03;3;3;
46240;PMS5003;31961;52.416;-0.732;2022-12-29T04:00:31;5;1;
46240;PMS5003;31961;52.416;-0.732;2022-12-29T04:02:58;4;2;
46240;PMS5003;31961;52.416;-0.732;2022-12-29T04:05:26;6;4;
46240;PMS5003;31961;52.416;-0.732;2022-12-29T04:07:53;3;2;
46240;PMS5003;31961;52.416;-0.732;2022-12-29T04:10:21;3;2;
46240;PMS5003;31961;52.416;-0.732;2022-12-29T04:12:48;4;2;
46240;PMS5003;31961;52.416;-0.732;2022-12-29T04:15:16;3;2;
46240;PMS5003;31961;52.416;-0.732;2022-12-29T04:17:44;5;3;
46240;PMS5003;31961;52.416;-0.732;2022-12-29T04:20:12;1;1;
46240;PMS5003;31961;52.416;-0.732;2022-12-29T04:22:39;2;2;
46240;PMS5003;31961;52.416;-0.732;2022-12-29T04:25:06;1;1;
46240;PMS5003;31961;52.416;-0.732;2022-12-29T04:27:35;2;1;
46240;PMS5003;31961;52.416;-0.732;2022-12-29T04:30:02;4;3;
46240;PMS5003;31961;52.416;-0.732;2022-12-29T04:32:31;3;2;
46240;PMS5003;31961;52.416;-0.732;2022-12-29T04:34:58;1;1;
46240;PMS5003;31961;52.416;-0.732;2022-12-29T04:37:25;1;1;
46240;PMS5003;31961;52.416;-0.732;2022-12-29T04:39:52;2;1;
46240;PMS5003;31961;52.416;-0.732;2022-12-29T04:42:20;0;0;
46240;PMS5003;31961;52.416;-0.732;2022-12-29T04:44:48;1;0;
46240;PMS5003;31961;52.416;-0.732;2022-12-29T04:47:15;1;0;
46240;PMS5003;31961;52.416;-0.732;2022-12-29T04:49:43;0;0;
46240;PMS5003;31961;52.416;-0.732;2022-12-29T04:52:10;2;0;
46240;PMS5003;31961;52.416;-0.732;2022-12-29T04:54:39;0;0;
46240;PMS5003;31961;52.416;-0.732;2022-12-29T04:57:06;1;1;
46240;PMS5003;31961;52.416;-0.732;2022-12-29T04:59:33;1;0;
46240;PMS5003;31961;52.416;-0.732;2022-12-29T05:02:01;1;1;
46240;PMS5003;31961;52.416;-0.732;2022-12-29T05:04:28;0;0;
46240;PMS5003;31961;52.416;-0.732;2022-12-29T05:06:56;0;0;
46240;PMS5003;31961;52.416;-0.732;2022-12-29T05:09:24;0;0;
46240;PMS5003;31961;52.416;-0.732;2022-12-29T05:11:51;2;0;
46240;PMS5003;31961;52.416;-0.732;2022-12-29T05:14:18;2;1;
46240;PMS5003;31961;52.416;-0.732;2022-12-29T05:16:46;0;0;
46240;PMS5003;31961;52.416;-0.732;2022-12-29T05:19:14;1;0;
46240;PMS5003;31961;52.416;-0.732;2022-12-29T05:21:41;0;0;
46240;PMS5003;31961;52.416;-0.732;2022-12-29T05:24:09;0;0;
46240;PMS5003;31961;52.416;-0.732;2022-12-29T05:26:36;0;0;
46240;PMS5003;31961;52.416;-0.732;2022-12-29T05:29:03;0;0;
46240;PMS5003;31961;52.416;-0.732;2022-12-29T05:31:31;1;0;
46240;PMS5003;31961;52.416;-0.732;2022-12-29T05:33:58;0;0;
46240;PMS5003;31961;52.416;-0.732;2022-12-29T05:36:25;1;1;
46240;PMS5003;31961;52.416;-0.732;2022-12-29T05:38:53;0;0;
46240;PMS5003;31961;52.416;-0.732;2022-12-29T05:41:20;0;0;
46240;PMS5003;31961;52.416;-0.732;2022-12-29T05:43:48;0;0;
46240;PMS5003;31961;52.416;-0.732;2022-12-29T05:46:16;2;1;
46240;PMS5003;31961;52.416;-0.732;2022-12-29T05:48:43;1;1;
46240;PMS5003;31961;52.416;-0.732;2022-12-29T05:51:11;0;0;
46240;PMS5003;31961;52.416;-0.732;2022-12-29T05:53:38;1;0;
46240;PMS5003;31961;52.416;-0.732;2022-12-29T05:56:06;1;0;
46240;PMS5003;31961;52.416;-0.732;2022-12-29T05:58:33;0;0;
46240;PMS5003;31961;52.416;-0.732;2022-12-29T06:01:01;0;0;
46240;PMS5003;31961;52.416;-0.732;2022-12-29T06:03:28;0;0;
46240;PMS5003;31961;52.416;-0.732;2022-12-29T06:05:56;0;0;
46240;PMS5003;31961;52.416;-0.732;2022-12-29T06:08:24;1;1;
46240;PMS5003;31961;52.416;-0.732;2022-12-29T06:10:51;1;0;
46240;PMS5003;31961;52.416;-0.732;2022-12-29T06:13:19;0;0;
46240;PMS5003;31961;52.416;-0.732;2022-12-29T06:15:47;2;1;
46240;PMS5003;31961;52.416;-0.732;2022-12-29T06:18:15;1;0;
46240;PMS5003;31961;52.416;-0.732;2022-12-29T06:20:42;1;0;
46240;PMS5003;31961;52.416;-0.732;2022-12-29T06:23:10;0;0;
46240;PMS5003;31961;52.416;-0.732;2022-12-29T06:25:37;1;1;
46240;PMS5003;31961;52.416;-0.732;2022-12-29T06:28:05;0;0;
46240;PMS5003;31961;52.416;-0.732;2022-12-29T06:30:32;0;0;
46240;PMS5003;31961;52.416;-0.732;2022-12-29T06:33:00;0;0;
46240;PMS5003;31961;52.416;-0.732;2022-12-29T06:35:28;0;0;
46240;PMS5003;31961;52.416;-0.732;2022-12-29T06:37:55;0;0;
46240;PMS5003;31961;52.416;-0.732;2022-12-29T06:40:22;0;0;
46240;PMS5003;31961;52.416;-0.732;2022-12-29T06:42:49;1;0;
46240;PMS5003;31961;52.416;-0.732;2022-12-29T06:45:17;2;0;
46240;PMS5003;31961;52.416;-0.732;2022-12-29T06:47:45;0;0;
46240;PMS5003;31961;52.416;-0.732;2022-12-29T06:50:12;0;0;
46240;PMS5003;31961;52.416;-0.732;2022-12-29T06:52:40;1;0;
46240;PMS5003;31961;52.416;-0.732;2022-12-29T06:55:08;2;0;
46240;PMS5003;31961;52.416;-0.732;2022-12-29T06:57:35;0;0;
46240;PMS5003;31961;52.416;-0.732;2022-12-29T07:00:03;0;0;
46240;PMS5003;31961;52.416;-0.732;2022-12-29T07:02:31;1;1;
46240;PMS5003;31961;52.416;-0.732;2022-12-29T07:04:58;1;1;
46240;PMS5003;31961;52.416;-0.732;2022-12-29T07:07:25;1;1;
46240;PMS5003;31961;52.416;-0.732;2022-12-29T07:09:53;1;1;
46240;PMS5003;31961;52.416;-0.732;2022-12-29T07:12:20;0;0;
46240;PMS5003;31961;52.416;-0.732;2022-12-29T07:14:48;1;1;
46240;PMS5003;31961;52.416;-0.732;2022-12-29T07:17:15;1;1;
46240;PMS5003;31961;52.416;-0.732;2022-12-29T07:19:43;0;0;
46240;PMS5003;31961;52.416;-0.732;2022-12-29T07:22:10;1;1;
46240;PMS5003;31961;52.416;-0.732;2022-12-29T07:24:38;1;1;
46240;PMS5003;31961;52.416;-0.732;2022-12-29T07:27:06;1;1;
46240;PMS5003;31961;52.416;-0.732;2022-12-29T07:29:33;1;1;
46240;PMS5003;31961;52.416;-0.732;2022-12-29T07:32:03;1;0;
46240;PMS5003;31961;52.416;-0.732;2022-12-29T07:34:30;2;2;
46240;PMS5003;31961;52.416;-0.732;2022-12-29T07:36:58;1;1;
46240;PMS5003;31961;52.416;-0.732;2022-12-29T07:39:25;3;0;
46240;PMS5003;31961;52.416;-0.732;2022-12-29T07:41:53;0;0;
46240;PMS5003;31961;52.416;-0.732;2022-12-29T07:44:20;1;1;
46240;PMS5003;31961;52.416;-0.732;2022-12-29T07:46:48;1;0;
46240;PMS5003;31961;52.416;-0.732;2022-12-29T07:49:15;0;0;
46240;PMS5003;31961;52.416;-0.732;2022-12-29T07:51:43;0;0;
46240;PMS5003;31961;52.416;-0.732;2022-12-29T07:54:11;2;0;
46240;PMS5003;31961;52.416;-0.732;2022-12-29T07:56:38;0;0;
46240;PMS5003;31961;52.416;-0.732;2022-12-29T07:59:06;0;0;
46240;PMS5003;31961;52.416;-0.732;2022-12-29T08:01:33;1;1;
46240;PMS5003;31961;52.416;-0.732;2022-12-29T08:04:01;0;0;
46240;PMS5003;31961;52.416;-0.732;2022-12-29T08:06:28;1;1;
46240;PMS5003;31961;52.416;-0.732;2022-12-29T08:08:56;0;0;
46240;PMS5003;31961;52.416;-0.732;2022-12-29T08:11:23;3;1;
46240;PMS5003;31961;52.416;-0.732;2022-12-29T08:13:51;3;1;
46240;PMS5003;31961;52.416;-0.732;2022-12-29T08:16:19;0;0;
46240;PMS5003;31961;52.416;-0.732;2022-12-29T08:18:46;1;1;
46240;PMS5003;31961;52.416;-0.732;2022-12-29T08:21:14;1;1;
46240;PMS5003;31961;52.416;-0.732;2022-12-29T08:23:41;1;1;
46240;PMS5003;31961;52.416;-0.732;2022-12-29T08:26:09;1;1;
46240;PMS5003;31961;52.416;-0.732;2022-12-29T08:28:36;0;0;
46240;PMS5003;31961;52.416;-0.732;2022-12-29T08:31:04;0;0;
46240;PMS5003;31961;52.416;-0.732;2022-12-29T08:33:31;1;1;
46240;PMS5003;31961;52.416;-0.732;2022-12-29T08:36:00;2;0;
46240;PMS5003;31961;52.416;-0.732;2022-12-29T08:38:29;0;0;
46240;PMS5003;31961;52.416;-0.732;2022-12-29T08:40:56;1;1;
46240;PMS5003;31961;52.416;-0.732;2022-12-29T08:43:24;1;0;
46240;PMS5003;31961;52.416;-0.732;2022-12-29T08:45:51;1;1;
46240;PMS5003;31961;52.416;-0.732;2022-12-29T08:48:19;2;2;
46240;PMS5003;31961;52.416;-0.732;2022-12-29T08:50:45;0;0;
46240;PMS5003;31961;52.416;-0.732;2022-12-29T08:53:13;2;1;
46240;PMS5003;31961;52.416;-0.732;2022-12-29T08:55:40;0;0;
46240;PMS5003;31961;52.416;-0.732;2022-12-29T08:58:08;1;1;
46240;PMS5003;31961;52.416;-0.732;2022-12-29T09:00:36;0;0;
46240;PMS5003;31961;52.416;-0.732;2022-12-29T09:03:03;2;0;
46240;PMS5003;31961;52.416;-0.732;2022-12-29T09:05:31;3;0;
46240;PMS5003;31961;52.416;-0.732;2022-12-29T09:07:58;3;2;
46240;PMS5003;31961;52.416;-0.732;2022-12-29T09:10:26;1;1;
46240;PMS5003;31961;52.416;-0.732;2022-12-29T09:12:53;0;0;
46240;PMS5003;31961;52.416;-0.732;2022-12-29T09:15:21;0;0;
46240;PMS5003;31961;52.416;-0.732;2022-12-29T09:17:49;0;0;
46240;PMS5003;31961;52.416;-0.732;2022-12-29T09:20:17;1;1;
46240;PMS5003;31961;52.416;-0.732;2022-12-29T09:22:46;0;0;
46240;PMS5003;31961;52.416;-0.732;2022-12-29T09:25:14;0;0;
46240;PMS5003;31961;52.416;-0.732;2022-12-29T09:27:41;2;1;
46240;PMS5003;31961;52.416;-0.732;2022-12-29T09:30:10;0;0;
46240;PMS5003;31961;52.416;-0.732;2022-12-29T09:32:38;1;1;
46240;PMS5003;31961;52.416;-0.732;2022-12-29T09:35:06;1;1;
46240;PMS5003;31961;52.416;-0.732;2022-12-29T09:37:33;1;1;
46240;PMS5003;31961;52.416;-0.732;2022-12-29T09:40:01;2;2;
46240;PMS5003;31961;52.416;-0.732;2022-12-29T09:42:29;1;1;
46240;PMS5003;31961;52.416;-0.732;2022-12-29T09:45:06;3;2;
46240;PMS5003;31961;52.416;-0.732;2022-12-29T09:47:40;2;2;
46240;PMS5003;31961;52.416;-0.732;2022-12-29T09:50:09;1;1;
46240;PMS5003;31961;52.416;-0.732;2022-12-29T09:52:46;3;2;
46240;PMS5003;31961;52.416;-0.732;2022-12-29T09:55:17;3;3;
46240;PMS5003;31961;52.416;-0.732;2022-12-29T09:57:48;3;3;
46240;PMS5003;31961;52.416;-0.732;2022-12-29T10:00:21;2;2;
46240;PMS5003;31961;52.416;-0.732;2022-12-29T10:02:54;3;2;
46240;PMS5003;31961;52.416;-0.732;2022-12-29T10:05:29;3;3;
46240;PMS5003;31961;52.416;-0.732;2022-12-29T10:08:05;3;3;
46240;PMS5003;31961;52.416;-0.732;2022-12-29T10:10:44;5;2;
46240;PMS5003;31961;52.416;-0.732;2022-12-29T10:13:21;3;2;
46240;PMS5003;31961;52.416;-0.732;2022-12-29T10:16:01;1;1;
46240;PMS5003;31961;52.416;-0.732;2022-12-29T10:18:39;1;1;
46240;PMS5003;31961;52.416;-0.732;2022-12-29T10:21:17;3;1;
46240;PMS5003;31961;52.416;-0.732;2022-12-29T10:23:55;1;1;
46240;PMS5003;31961;52.416;-0.732;2022-12-29T10:26:26;1;1;
46240;PMS5003;31961;52.416;-0.732;2022-12-29T10:28:58;1;1;
46240;PMS5003;31961;52.416;-0.732;2022-12-29T10:31:32;2;1;
46240;PMS5003;31961;52.416;-0.732;2022-12-29T10:34:06;3;2;
46240;PMS5003;31961;52.416;-0.732;2022-12-29T10:36:42;2;2;
46240;PMS5003;31961;52.416;-0.732;2022-12-29T10:39:13;2;2;
46240;PMS5003;31961;52.416;-0.732;2022-12-29T10:41:48;1;1;
46240;PMS5003;31961;52.416;-0.732;2022-12-29T10:44:19;1;1;
46240;PMS5003;31961;52.416;-0.732;2022-12-29T10:46:52;0;0;
46240;PMS5003;31961;52.416;-0.732;2022-12-29T10:49:22;1;1;
46240;PMS5003;31961;52.416;-0.732;2022-12-29T10:51:54;3;2;
46240;PMS5003;31961;52.416;-0.732;2022-12-29T10:54:25;1;1;
46240;PMS5003;31961;52.416;-0.732;2022-12-29T10:56:59;0;0;
46240;PMS5003;31961;52.416;-0.732;2022-12-29T10:59:28;9;9;
46240;PMS5003;31961;52.416;-0.732;2022-12-29T11:01:59;7;5;
46240;PMS5003;31961;52.416;-0.732;2022-12-29T11:04:43;6;5;
46240;PMS5003;31961;52.416;-0.732;2022-12-29T11:07:18;13;11;
46240;PMS5003;31961;52.416;-0.732;2022-12-29T11:09:47;8;8;
46240;PMS5003;31961;52.416;-0.732;2022-12-29T11:12:18;13;9;
46240;PMS5003;31961;52.416;-0.732;2022-12-29T11:14:49;8;7;
46240;PMS5003;31961;52.416;-0.732;2022-12-29T11:17:28;7;6;
46240;PMS5003;31961;52.416;-0.732;2022-12-29T11:19:56;3;3;
46240;PMS5003;31961;52.416;-0.732;2022-12-29T11:22:23;2;2;
46240;PMS5003;31961;52.416;-0.732;2022-12-29T11:24:53;5;4;
46240;PMS5003;31961;52.416;-0.732;2022-12-29T11:27:31;1;1;
46240;PMS5003;31961;52.416;-0.732;2022-12-29T11:29:58;2;2;
46240;PMS5003;31961;52.416;-0.732;2022-12-29T11:32:27;2;2;
46240;PMS5003;31961;52.416;-0.732;2022-12-29T11:34:55;2;2;
46240;PMS5003;31961;52.416;-0.732;2022-12-29T11:37:27;3;3;
46240;PMS5003;31961;52.416;-0.732;2022-12-29T11:39:57;4;3;
46240;PMS5003;31961;52.416;-0.732;2022-12-29T11:42:34;3;3;
46240;PMS5003;31961;52.416;-0.732;2022-12-29T11:45:04;1;1;
46240;PMS5003;31961;52.416;-0.732;2022-12-29T11:47:41;5;3;
46240;PMS5003;31961;52.416;-0.732;2022-12-29T11:50:16;4;1;
46240;PMS5003;31961;52.416;-0.732;2022-12-29T11:52:45;2;2;
46240;PMS5003;31961;52.416;-0.732;2022-12-29T11:55:17;4;4;
46240;PMS5003;31961;52.416;-0.732;2022-12-29T11:57:46;7;3;
46240;PMS5003;31961;52.416;-0.732;2022-12-29T12:00:15;2;0;
46240;PMS5003;31961;52.416;-0.732;2022-12-29T12:02:45;4;3;
46240;PMS5003;31961;52.416;-0.732;2022-12-29T12:05:21;3;0;
46240;PMS5003;31961;52.416;-0.732;2022-12-29T12:07:54;3;1;
46240;PMS5003;31961;52.416;-0.732;2022-12-29T12:10:29;2;1;
46240;PMS5003;31961;52.416;-0.732;2022-12-29T12:13:03;4;2;
46240;PMS5003;31961;52.416;-0.732;2022-12-29T12:15:39;2;2;
46240;PMS5003;31961;52.416;-0.732;2022-12-29T12:18:11;1;1;
46240;PMS5003;31961;52.416;-0.732;2022-12-29T12:20:45;2;2;
46240;PMS5003;31961;52.416;-0.732;2022-12-29T12:23:19;2;2;
46240;PMS5003;31961;52.416;-0.732;2022-12-29T12:26:00;4;2;
46240;PMS5003;31961;52.416;-0.732;2022-12-29T12:28:37;2;2;
46240;PMS5003;31961;52.416;-0.732;2022-12-29T12:31:15;2;1;
46240;PMS5003;31961;52.416;-0.732;2022-12-29T12:33:49;3;2;
46240;PMS5003;31961;52.416;-0.732;2022-12-29T12:36:26;3;2;
46240;PMS5003;31961;52.416;-0.732;2022-12-29T12:39:08;5;4;
46240;PMS5003;31961;52.416;-0.732;2022-12-29T12:41:43;2;2;
46240;PMS5003;31961;52.416;-0.732;2022-12-29T12:44:20;2;1;
46240;PMS5003;31961;52.416;-0.732;2022-12-29T12:46:59;4;3;
46240;PMS5003;31961;52.416;-0.732;2022-12-29T12:49:42;3;2;
46240;PMS5003;31961;52.416;-0.732;2022-12-29T12:52:29;4;2;
46240;PMS5003;31961;52.416;-0.732;2022-12-29T12:55:13;1;0;
46240;PMS5003;31961;52.416;-0.732;2022-12-29T12:57:55;1;1;
46240;PMS5003;31961;52.416;-0.732;2022-12-29T13:00:30;4;3;
46240;PMS5003;31961;52.416;-0.732;2022-12-29T13:03:04;3;1;
46240;PMS5003;31961;52.416;-0.732;2022-12-29T13:05:42;2;1;
46240;PMS5003;31961;52.416;-0.732;2022-12-29T13:08:27;2;2;
46240;PMS5003;31961;52.416;-0.732;2022-12-29T13:11:07;5;3;
46240;PMS5003;31961;52.416;-0.732;2022-12-29T13:13:48;3;2;
46240;PMS5003;31961;52.416;-0.732;2022-12-29T13:16:27;3;2;
46240;PMS5003;31961;52.416;-0.732;2022-12-29T13:19:02;1;1;
46240;PMS5003;31961;52.416;-0.732;2022-12-29T13:21:40;1;1;
46240;PMS5003;31961;52.416;-0.732;2022-12-29T13:24:23;1;1;
46240;PMS5003;31961;52.416;-0.732;2022-12-29T13:26:58;5;3;
46240;PMS5003;31961;52.416;-0.732;2022-12-29T13:29:31;2;1;
46240;PMS5003;31961;52.416;-0.732;2022-12-29T13:32:11;7;2;
46240;PMS5003;31961;52.416;-0.732;2022-12-29T13:34:48;7;3;
46240;PMS5003;31961;52.416;-0.732;2022-12-29T13:37:26;3;2;
46240;PMS5003;31961;52.416;-0.732;2022-12-29T13:39:58;5;2;
46240;PMS5003;31961;52.416;-0.732;2022-12-29T13:42:29;6;4;
46240;PMS5003;31961;52.416;-0.732;2022-12-29T13:44:57;3;2;
46240;PMS5003;31961;52.416;-0.732;2022-12-29T13:47:30;4;1;
46240;PMS5003;31961;52.416;-0.732;2022-12-29T13:50:03;4;2;
46240;PMS5003;31961;52.416;-0.732;2022-12-29T13:52:39;1;1;
46240;PMS5003;31961;52.416;-0.732;2022-12-29T13:55:18;3;3;
46240;PMS5003;31961;52.416;-0.732;2022-12-29T13:57:51;3;2;
46240;PMS5003;31961;52.416;-0.732;2022-12-29T14:00:27;3;3;
46240;PMS5003;31961;52.416;-0.732;2022-12-29T14:03:09;0;0;
46240;PMS5003;31961;52.416;-0.732;2022-12-29T14:06:02;4;0;
46240;PMS5003;31961;52.416;-0.732;2022-12-29T14:08:37;1;1;
46240;PMS5003;31961;52.416;-0.732;2022-12-29T14:11:06;1;1;
46240;PMS5003;31961;52.416;-0.732;2022-12-29T14:13:37;3;2;
46240;PMS5003;31961;52.416;-0.732;2022-12-29T14:16:06;1;0;
46240;PMS5003;31961;52.416;-0.732;2022-12-29T14:18:42;3;1;
46240;PMS5003;31961;52.416;-0.732;2022-12-29T14:30:57;1;1;
46240;PMS5003;31961;52.416;-0.732;2022-12-29T14:33:26;2;1;
46240;PMS5003;31961;52.416;-0.732;2022-12-29T14:35:55;2;1;
46240;PMS5003;31961;52.416;-0.732;2022-12-29T14:38:27;1;1;
46240;PMS5003;31961;52.416;-0.732;2022-12-29T14:41:29;1;1;
46240;PMS5003;31961;52.416;-0.732;2022-12-29T14:44:01;3;2;
46240;PMS5003;31961;52.416;-0.732;2022-12-29T14:46:42;4;2;
46240;PMS5003;31961;52.416;-0.732;2022-12-29T14:49:14;4;3;
46240;PMS5003;31961;52.416;-0.732;2022-12-29T14:51:46;2;1;
46240;PMS5003;31961;52.416;-0.732;2022-12-29T14:54:50;2;1;
46240;PMS5003;31961;52.416;-0.732;2022-12-29T14:57:20;3;1;
46240;PMS5003;31961;52.416;-0.732;2022-12-29T14:59:52;4;2;
46240;PMS5003;31961;52.416;-0.732;2022-12-29T15:02:23;2;1;
46240;PMS5003;31961;52.416;-0.732;2022-12-29T15:04:53;1;1;
46240;PMS5003;31961;52.416;-0.732;2022-12-29T15:07:24;2;2;
46240;PMS5003;31961;52.416;-0.732;2022-12-29T15:09:56;2;1;
46240;PMS5003;31961;52.416;-0.732;2022-12-29T15:12:32;1;1;
46240;PMS5003;31961;52.416;-0.732;2022-12-29T15:15:13;2;2;
46240;PMS5003;31961;52.416;-0.732;2022-12-29T15:17:45;2;2;
46240;PMS5003;31961;52.416;-0.732;2022-12-29T15:20:16;2;2;
46240;PMS5003;31961;52.416;-0.732;2022-12-29T15:22:50;2;1;
46240;PMS5003;31961;52.416;-0.732;2022-12-29T15:25:21;1;1;
46240;PMS5003;31961;52.416;-0.732;2022-12-29T15:27:49;1;1;
46240;PMS5003;31961;52.416;-0.732;2022-12-29T15:30:18;3;2;
46240;PMS5003;31961;52.416;-0.732;2022-12-29T15:32:47;2;1;
46240;PMS5003;31961;52.416;-0.732;2022-12-29T15:35:28;3;2;
46240;PMS5003;31961;52.416;-0.732;2022-12-29T15:37:57;3;2;
46240;PMS5003;31961;52.416;-0.732;2022-12-29T15:40:26;4;3;
46240;PMS5003;31961;52.416;-0.732;2022-12-29T15:42:59;4;3;
46240;PMS5003;31961;52.416;-0.732;2022-12-29T15:45:36;4;3;
46240;PMS5003;31961;52.416;-0.732;2022-12-29T15:48:04;1;1;
46240;PMS5003;31961;52.416;-0.732;2022-12-29T15:50:39;3;1;
46240;PMS5003;31961;52.416;-0.732;2022-12-29T15:53:09;3;1;
46240;PMS5003;31961;52.416;-0.732;2022-12-29T15:55:39;2;2;
46240;PMS5003;31961;52.416;-0.732;2022-12-29T15:58:18;1;1;
46240;PMS5003;31961;52.416;-0.732;2022-12-29T16:00:48;2;1;
46240;PMS5003;31961;52.416;-0.732;2022-12-29T16:03:16;2;2;
46240;PMS5003;31961;52.416;-0.732;2022-12-29T16:05:49;2;2;
46240;PMS5003;31961;52.416;-0.732;2022-12-29T16:08:24;3;1;
46240;PMS5003;31961;52.416;-0.732;2022-12-29T16:10:57;5;4;
46240;PMS5003;31961;52.416;-0.732;2022-12-29T16:13:26;7;7;
46240;PMS5003;31961;52.416;-0.732;2022-12-29T16:15:59;6;4;
46240;PMS5003;31961;52.416;-0.732;2022-12-29T16:18:29;5;5;
46240;PMS5003;31961;52.416;-0.732;2022-12-29T16:21:00;3;2;
46240;PMS5003;31961;52.416;-0.732;2022-12-29T16:23:29;5;3;
46240;PMS5003;31961;52.416;-0.732;2022-12-29T16:25:57;6;3;
46240;PMS5003;31961;52.416;-0.732;2022-12-29T16:28:34;2;2;
46240;PMS5003;31961;52.416;-0.732;2022-12-29T16:31:03;3;2;
46240;PMS5003;31961;52.416;-0.732;2022-12-29T16:33:35;3;3;
46240;PMS5003;31961;52.416;-0.732;2022-12-29T16:37:24;2;2;
46240;PMS5003;31961;52.416;-0.732;2022-12-29T16:39:55;2;1;
46240;PMS5003;31961;52.416;-0.732;2022-12-29T16:42:45;4;3;
46240;PMS5003;31961;52.416;-0.732;2022-12-29T16:45:29;4;4;
46240;PMS5003;31961;52.416;-0.732;2022-12-29T16:48:23;1;1;
46240;PMS5003;31961;52.416;-0.732;2022-12-29T16:50:59;3;2;
46240;PMS5003;31961;52.416;-0.732;2022-12-29T16:53:29;1;1;
46240;PMS5003;31961;52.416;-0.732;2022-12-29T16:56:00;1;1;
46240;PMS5003;31961;52.416;-0.732;2022-12-29T16:58:31;3;3;
46240;PMS5003;31961;52.416;-0.732;2022-12-29T17:00:59;2;2;
46240;PMS5003;31961;52.416;-0.732;2022-12-29T17:03:31;3;1;
46240;PMS5003;31961;52.416;-0.732;2022-12-29T17:06:00;2;2;
46240;PMS5003;31961;52.416;-0.732;2022-12-29T17:08:28;4;3;
46240;PMS5003;31961;52.416;-0.732;2022-12-29T17:11:08;6;3;